• Join FlightAware (Why Join?)
  • Login
  • US Flag 
03:35AM EDT


 

Airport Tracker/Info


-or-


 

Live Flight TrackerFlight Track Log ✈ SWA2894 ✈ 31-Jul-2013 ✈ KLAX - KTUS

Flight Track Log - Related Links

Times and Time Zones

All times are in EDT time to prevent confusion due to time zone crossing. See the SWA2894 flight status page for this flight to view local times or setup timezone preferences in your user account.

Time Position Orientation Groundspeed Altitude Reporting Facility
EDT Latitude Longitude Course Direction KTS MPH feet Rate Location/Type
02:18PM 33.9350 -118.4486 205° Southwest 167 192 1,900  Level Los Angeles Center
02:19PM 33.8736 -118.4831 205° Southwest 233 268 5,100 3,720 Climbing Los Angeles Center
02:20PM 33.8019 -118.5014 192° South 258 297 9,600 3,120 Climbing Los Angeles Center
02:21PM 33.7228 -118.5117 186° South 307 353 12,200 2,700 Climbing Los Angeles Center
02:22PM 33.6614 -118.4072 125° Southeast 348 400 15,900 3,420 Climbing Los Angeles Center
02:23PM 33.6442 -118.2617 98° East 385 443 19,400 3,000 Climbing Los Angeles Center
02:24PM 33.6450 -118.1311 90° East 400 460 22,200 1,740 Climbing Los Angeles Center
02:25PM 33.6450 -117.9958 90° East 407 468 23,000 360 Climbing Los Angeles Center
02:26PM 33.6444 -117.8611 90° East 407 468 23,000 480 Level Los Angeles Center
02:27PM 33.6431 -117.7269 91° East 405 466 24,100 1,740 Climbing Los Angeles Center
02:28PM 33.6431 -117.5586 90° East 420 483 26,600 2,100 Climbing Los Angeles Center
02:29PM 33.6422 -117.4133 90° East 436 502 28,500 1,140 Climbing Los Angeles Center
02:30PM 33.6408 -117.2622 91° East 451 519 29,000 240 Climbing Los Angeles Center
02:31PM 33.6267 -117.1144 97° East 451 519 29,000 720 Level Los Angeles Center
02:32PM 33.6053 -116.9683 100° East 447 514 30,500 1,740 Climbing Los Angeles Center
02:33PM 33.5828 -116.7994 99° East 450 518 32,700 1,800 Climbing Los Angeles Center
02:34PM 33.5617 -116.6453 99° East 463 533 34,300 1,980 Climbing Los Angeles Center
02:35PM 33.5414 -116.4925 99° East 463 533 36,800 2,220 Climbing Los Angeles Center
02:36PM 33.5217 -116.3458 99° East 447 514 38,900 1,680 Climbing Los Angeles Center
02:37PM 33.5014 -116.2042 100° East 434 499 40,300 960 Climbing Los Angeles Center
02:38PM 33.4767 -116.0319 100° East 435 501 41,000 300 Climbing Los Angeles Center
02:40PM 33.4564 -115.8886 100° East 436 502 41,000  Level Los Angeles Center
02:41PM 33.4361 -115.7464 100° East 435 501 41,000  Level Los Angeles Center
02:42PM 33.4153 -115.6028 100° East 436 502 41,000  Level Los Angeles Center
02:43PM 33.3942 -115.4619 100° East 433 498 41,000  Level Los Angeles Center
02:44PM 33.3728 -115.3203 100° East 432 497 41,000  Level Los Angeles Center
02:45PM 33.3489 -115.1517 100° East 430 495 41,000  Level Los Angeles Center
02:46PM 33.3272 -115.0122 100° East 428 493 41,000  Level Los Angeles Center
02:47PM 33.3067 -114.8700 100° East 435 501 41,000  Level Los Angeles Center
02:48PM 33.2858 -114.7281 100° East 436 502 41,000  Level Los Angeles Center
02:49PM 33.2642 -114.5875 100° East 434 499 41,000  Level Los Angeles Center
02:50PM 33.2456 -114.4742 101° East 435 501 41,000  Level Los Angeles Center
02:51PM 33.2289 -114.3397 98° East 434 499 41,000  Level Albuquerque Center
02:52PM 33.2058 -114.1986 101° East 433 498 41,000  Level Albuquerque Center
02:53PM 33.1836 -114.0564 101° East 435 501 41,000  Level Albuquerque Center
02:54PM 33.1617 -113.9153 100° East 434 499 41,000  Level Albuquerque Center
02:55PM 33.1386 -113.7744 101° East 433 498 41,000  Level Albuquerque Center
02:56PM 33.1158 -113.6336 101° East 433 498 41,000  Level Albuquerque Center
02:57PM 33.0883 -113.4642 101° East 432 497 41,000 -540 Level Albuquerque Center
02:58PM 33.0647 -113.3233 101° East 433 498 40,000 -960 Descending Albuquerque Center
02:59PM 33.0428 -113.1803 100° East 437 503 39,100 -960 Descending Albuquerque Center
03:00PM 33.0169 -113.0356 102° East 441 507 38,100 -960 Descending Albuquerque Center
03:01PM 32.9931 -112.8897 101° East 446 513 37,200 -960 Descending Albuquerque Center
03:02PM 32.9697 -112.7444 101° East 445 512 36,200 -1,020 Descending Albuquerque Center
03:03PM 32.9311 -112.6036 108° East 447 514 35,200 -2,520 Descending Albuquerque Center
03:05PM 32.8167 -112.3094 115° Southeast 443 510 28,500 -2,940 Descending Albuquerque Center
03:06PM 32.7739 -112.1975 114° Southeast 436 502 26,100 -2,520 Descending Albuquerque Center
03:07PM 32.7244 -112.0728 115° Southeast 424 488 23,300 -2,820 Descending Albuquerque Center
03:08PM 32.6681 -111.9289 115° Southeast 407 468 20,400 -2,640 Descending Albuquerque Center
03:09PM 32.6242 -111.8114 114° Southeast 394 453 18,000 -2,280 Descending Albuquerque Center
03:10PM 32.5886 -111.7333 118° Southeast 367 422 16,500 -2,160 Descending Albuquerque Center
03:11PM 32.5511 -111.6369 115° Southeast 349 402 14,600 -1,980 Descending Albuquerque Center
03:12PM 32.4964 -111.5403 124° Southeast 331 381 12,500 -1,740 Descending Albuquerque Center
03:13PM 32.4514 -111.4614 124° Southeast 317 365 11,100 -1,500 Descending Albuquerque Center
03:14PM 32.4094 -111.3869 124° Southeast 300 345 9,800 -1,500 Descending Albuquerque Center
03:14PM 32.3869 -111.3408 120° Southeast 292 336 8,900 -1,500 Descending Albuquerque Center
03:15PM 32.3436 -111.2636 124° Southeast 284 327 7,400 -1,440 Descending Albuquerque Center
03:16PM 32.3144 -111.2156 126° Southeast 279 321 6,600 -840 Descending Albuquerque Center
03:17PM 32.2719 -111.1411 124° Southeast 276 318 6,100 -480 Descending Albuquerque Center
03:18PM 32.2283 -111.0697 126° Southeast 245 282 5,600 -840 Descending Albuquerque Center
03:19PM 32.2008 -111.0394 137° Southeast 226 260 4,700 -1,080 Descending Albuquerque Center
03:19PM 32.1783 -111.0042 127° Southeast 234 269 4,100 -540 Descending Albuquerque Center
03:20PM 32.1447 -110.9603 132° Southeast 224 258 3,800 -300 Descending Albuquerque Center
03:23PM 32.1161 -110.9410 128° Southeast  Level Estimated